Accueil
METAR-TAF:

METAR-TAF

Aéroports :

Aéroport de Dakhla

Dakhla, Maroc

latitude: 23-43-05N, longitude: 015-55-55W, altitude: 11 m

Observation

Le bulletin a été fait il y a 50 minutes, à 17:00 UTC
Vent 29 kt de nord
Température 24°C
Humidité 69%
Pression 1013 hPa
Visibilité: 5000 m

METAR: GMMH 281700Z 01029KT 5000 NSC 24/18 Q1013 NOSIG

Heure: 18:50 (17:50 UTC)

Prévision

Le bulletin a été fait il y a 50 minutes, à 17:00 UTC
Prévision valable du 28 à 18 UTC au 29 à 24 UTC
Vent 29 kt de nord
Visibilité: 5000 m

TAF: GMMH 281700Z 2818/2924 01029KT 5000 NSC

Observations et prévisions météorologiques de plus de 4000 aéroports (messages METAR et TAF).

Les stations disponibles sont représentées par des disques jaunes et rouges sur la carte.

Passer la souris dessus pour voir le nom de la station.

Cliquer dessus pour voir les observations et prévisions météorologiques.

Pour changer de carte: cliquez sur les boutons verts avec une croix noire pour zoomer, sur le bouton vert avec un tiret pour effectuer un zoom arrière, ou sur les flèches vertes pour les cartes adjacentes.


METAR-TAF: